sensor_id;sensor_type;location;lat;lon;timestamp;temperature;humidity
59975;DHT22;62136;-35.664;-63.766;2023-02-12T00:00:14;33.30;41.90
59975;DHT22;62136;-35.664;-63.766;2023-02-12T00:02:42;33.20;41.90
59975;DHT22;62136;-35.664;-63.766;2023-02-12T00:05:09;33.20;42.00
59975;DHT22;62136;-35.664;-63.766;2023-02-12T00:07:36;33.20;42.00
59975;DHT22;62136;-35.664;-63.766;2023-02-12T00:10:03;33.20;42.10
59975;DHT22;62136;-35.664;-63.766;2023-02-12T00:12:30;33.20;42.10
59975;DHT22;62136;-35.664;-63.766;2023-02-12T00:14:57;33.10;42.10
59975;DHT22;62136;-35.664;-63.766;2023-02-12T00:17:24;33.20;42.20
59975;DHT22;62136;-35.664;-63.766;2023-02-12T00:19:51;33.10;42.20
59975;DHT22;62136;-35.664;-63.766;2023-02-12T00:22:18;33.10;42.30
59975;DHT22;62136;-35.664;-63.766;2023-02-12T00:24:45;33.10;42.30
59975;DHT22;62136;-35.664;-63.766;2023-02-12T00:27:12;33.10;42.30
59975;DHT22;62136;-35.664;-63.766;2023-02-12T00:29:40;33.10;42.40
59975;DHT22;62136;-35.664;-63.766;2023-02-12T00:32:07;33.10;42.40
59975;DHT22;62136;-35.664;-63.766;2023-02-12T00:34:34;33.10;42.50
59975;DHT22;62136;-35.664;-63.766;2023-02-12T00:37:01;33.10;43.00
59975;DHT22;62136;-35.664;-63.766;2023-02-12T00:39:28;33.00;42.50
59975;DHT22;62136;-35.664;-63.766;2023-02-12T00:41:55;33.00;42.60
59975;DHT22;62136;-35.664;-63.766;2023-02-12T00:44:22;33.00;42.60
59975;DHT22;62136;-35.664;-63.766;2023-02-12T00:46:49;33.00;42.70
59975;DHT22;62136;-35.664;-63.766;2023-02-12T00:49:16;33.00;42.80
59975;DHT22;62136;-35.664;-63.766;2023-02-12T00:51:45;33.00;42.80
59975;DHT22;62136;-35.664;-63.766;2023-02-12T00:54:12;32.90;42.90
59975;DHT22;62136;-35.664;-63.766;2023-02-12T00:56:40;32.90;42.90
59975;DHT22;62136;-35.664;-63.766;2023-02-12T00:59:07;32.90;42.90
59975;DHT22;62136;-35.664;-63.766;2023-02-12T01:01:34;32.90;43.00
59975;DHT22;62136;-35.664;-63.766;2023-02-12T01:04:01;32.90;43.20
59975;DHT22;62136;-35.664;-63.766;2023-02-12T01:06:28;32.90;43.20
59975;DHT22;62136;-35.664;-63.766;2023-02-12T01:08:55;32.90;43.10
59975;DHT22;62136;-35.664;-63.766;2023-02-12T01:11:22;32.90;43.20
59975;DHT22;62136;-35.664;-63.766;2023-02-12T01:16:23;32.80;43.30
59975;DHT22;62136;-35.664;-63.766;2023-02-12T01:18:53;32.80;43.30
59975;DHT22;62136;-35.664;-63.766;2023-02-12T01:21:27;32.80;43.40
59975;DHT22;62136;-35.664;-63.766;2023-02-12T01:23:56;32.80;43.60
59975;DHT22;62136;-35.664;-63.766;2023-02-12T01:26:24;32.80;43.50
59975;DHT22;62136;-35.664;-63.766;2023-02-12T01:28:54;32.80;43.60
59975;DHT22;62136;-35.664;-63.766;2023-02-12T01:31:24;32.70;43.70
59975;DHT22;62136;-35.664;-63.766;2023-02-12T01:33:53;32.70;43.80
59975;DHT22;62136;-35.664;-63.766;2023-02-12T01:36:21;32.70;43.80
59975;DHT22;62136;-35.664;-63.766;2023-02-12T01:38:49;32.70;43.90
59975;DHT22;62136;-35.664;-63.766;2023-02-12T01:41:24;32.60;44.00
59975;DHT22;62136;-35.664;-63.766;2023-02-12T01:46:33;32.60;44.10
59975;DHT22;62136;-35.664;-63.766;2023-02-12T01:49:00;32.60;44.20
59975;DHT22;62136;-35.664;-63.766;2023-02-12T01:51:30;32.60;44.20
59975;DHT22;62136;-35.664;-63.766;2023-02-12T01:54:00;32.60;44.30
59975;DHT22;62136;-35.664;-63.766;2023-02-12T01:56:29;32.60;44.30
59975;DHT22;62136;-35.664;-63.766;2023-02-12T01:58:57;32.60;44.40
59975;DHT22;62136;-35.664;-63.766;2023-02-12T02:01:26;32.50;44.40
59975;DHT22;62136;-35.664;-63.766;2023-02-12T02:03:58;32.50;44.40
59975;DHT22;62136;-35.664;-63.766;2023-02-12T02:06:51;32.50;44.60
59975;DHT22;62136;-35.664;-63.766;2023-02-12T02:09:17;32.50;44.60
59975;DHT22;62136;-35.664;-63.766;2023-02-12T02:11:45;32.50;44.60
59975;DHT22;62136;-35.664;-63.766;2023-02-12T02:14:30;32.50;44.70
59975;DHT22;62136;-35.664;-63.766;2023-02-12T02:25:41;32.40;44.80
59975;DHT22;62136;-35.664;-63.766;2023-02-12T02:39:29;32.30;45.00
59975;DHT22;62136;-35.664;-63.766;2023-02-12T02:42:42;32.30;45.10
59975;DHT22;62136;-35.664;-63.766;2023-02-12T02:44:54;32.30;45.10
59975;DHT22;62136;-35.664;-63.766;2023-02-12T02:47:29;32.30;45.20
59975;DHT22;62136;-35.664;-63.766;2023-02-12T02:50:19;32.20;45.30
59975;DHT22;62136;-35.664;-63.766;2023-02-12T02:55:22;32.20;45.30
59975;DHT22;62136;-35.664;-63.766;2023-02-12T02:57:57;32.20;45.40
59975;DHT22;62136;-35.664;-63.766;2023-02-12T03:03:52;32.20;45.40
59975;DHT22;62136;-35.664;-63.766;2023-02-12T03:06:42;32.20;45.50
59975;DHT22;62136;-35.664;-63.766;2023-02-12T03:11:45;32.10;45.60
59975;DHT22;62136;-35.664;-63.766;2023-02-12T03:14:22;32.10;45.70
59975;DHT22;62136;-35.664;-63.766;2023-02-12T03:19:32;32.10;45.80
59975;DHT22;62136;-35.664;-63.766;2023-02-12T03:22:07;32.00;45.80
59975;DHT22;62136;-35.664;-63.766;2023-02-12T03:24:45;32.00;45.80
59975;DHT22;62136;-35.664;-63.766;2023-02-12T03:27:25;32.00;45.90
59975;DHT22;62136;-35.664;-63.766;2023-02-12T03:29:54;32.00;45.90
59975;DHT22;62136;-35.664;-63.766;2023-02-12T03:41:17;31.90;46.10
59975;DHT22;62136;-35.664;-63.766;2023-02-12T03:49:31;32.00;46.20
59975;DHT22;62136;-35.664;-63.766;2023-02-12T03:52:01;31.90;46.20
59975;DHT22;62136;-35.664;-63.766;2023-02-12T03:54:29;31.90;46.30
59975;DHT22;62136;-35.664;-63.766;2023-02-12T03:57:07;31.90;46.20
59975;DHT22;62136;-35.664;-63.766;2023-02-12T03:59:37;31.90;46.40
59975;DHT22;62136;-35.664;-63.766;2023-02-12T04:02:08;31.80;46.30
59975;DHT22;62136;-35.664;-63.766;2023-02-12T04:04:36;31.80;46.40
59975;DHT22;62136;-35.664;-63.766;2023-02-12T04:07:03;31.80;46.40
59975;DHT22;62136;-35.664;-63.766;2023-02-12T04:09:33;31.80;46.40
59975;DHT22;62136;-35.664;-63.766;2023-02-12T04:17:35;31.80;46.50
59975;DHT22;62136;-35.664;-63.766;2023-02-12T04:32:06;31.70;46.70
59975;DHT22;62136;-35.664;-63.766;2023-02-12T04:37:56;31.70;46.80
59975;DHT22;62136;-35.664;-63.766;2023-02-12T04:40:25;31.60;46.80
59975;DHT22;62136;-35.664;-63.766;2023-02-12T04:42:52;31.60;46.70
59975;DHT22;62136;-35.664;-63.766;2023-02-12T04:45:29;31.60;46.80
59975;DHT22;62136;-35.664;-63.766;2023-02-12T04:47:57;31.60;46.80
59975;DHT22;62136;-35.664;-63.766;2023-02-12T04:50:25;31.60;46.90
59975;DHT22;62136;-35.664;-63.766;2023-02-12T04:52:52;31.60;46.90
59975;DHT22;62136;-35.664;-63.766;2023-02-12T04:55:19;31.50;46.90
59975;DHT22;62136;-35.664;-63.766;2023-02-12T04:57:47;31.50;46.90
59975;DHT22;62136;-35.664;-63.766;2023-02-12T05:00:14;31.50;47.00
59975;DHT22;62136;-35.664;-63.766;2023-02-12T05:02:41;31.50;46.90
59975;DHT22;62136;-35.664;-63.766;2023-02-12T05:05:08;31.50;47.10
59975;DHT22;62136;-35.664;-63.766;2023-02-12T05:07:35;31.50;47.00
59975;DHT22;62136;-35.664;-63.766;2023-02-12T05:10:03;31.50;47.00
59975;DHT22;62136;-35.664;-63.766;2023-02-12T05:12:30;31.50;47.10
59975;DHT22;62136;-35.664;-63.766;2023-02-12T05:14:57;31.40;47.00
59975;DHT22;62136;-35.664;-63.766;2023-02-12T05:17:24;31.40;47.20
59975;DHT22;62136;-35.664;-63.766;2023-02-12T05:19:51;31.40;47.10
59975;DHT22;62136;-35.664;-63.766;2023-02-12T05:22:18;31.40;47.20
59975;DHT22;62136;-35.664;-63.766;2023-02-12T05:24:45;31.40;47.20
59975;DHT22;62136;-35.664;-63.766;2023-02-12T05:27:31;31.40;47.20
59975;DHT22;62136;-35.664;-63.766;2023-02-12T05:30:27;31.40;47.20
59975;DHT22;62136;-35.664;-63.766;2023-02-12T05:33:20;31.40;47.20
59975;DHT22;62136;-35.664;-63.766;2023-02-12T05:35:47;31.30;47.20
59975;DHT22;62136;-35.664;-63.766;2023-02-12T05:38:14;31.30;47.30
59975;DHT22;62136;-35.664;-63.766;2023-02-12T05:40:41;31.30;47.30
59975;DHT22;62136;-35.664;-63.766;2023-02-12T05:43:08;31.30;47.30
59975;DHT22;62136;-35.664;-63.766;2023-02-12T05:45:35;31.30;47.20
59975;DHT22;62136;-35.664;-63.766;2023-02-12T05:48:02;31.30;47.30
59975;DHT22;62136;-35.664;-63.766;2023-02-12T05:50:32;31.30;47.30
59975;DHT22;62136;-35.664;-63.766;2023-02-12T05:53:00;31.30;47.40
59975;DHT22;62136;-35.664;-63.766;2023-02-12T05:55:27;31.30;47.20
59975;DHT22;62136;-35.664;-63.766;2023-02-12T05:57:54;31.30;47.40
59975;DHT22;62136;-35.664;-63.766;2023-02-12T06:00:21;31.30;47.20
59975;DHT22;62136;-35.664;-63.766;2023-02-12T06:02:48;31.20;47.40
59975;DHT22;62136;-35.664;-63.766;2023-02-12T06:05:15;31.30;47.50
59975;DHT22;62136;-35.664;-63.766;2023-02-12T06:07:42;31.20;47.40
59975;DHT22;62136;-35.664;-63.766;2023-02-12T06:10:10;31.20;47.40
59975;DHT22;62136;-35.664;-63.766;2023-02-12T06:12:37;31.30;47.60
59975;DHT22;62136;-35.664;-63.766;2023-02-12T06:15:04;31.20;47.60
59975;DHT22;62136;-35.664;-63.766;2023-02-12T06:17:33;31.20;47.60
59975;DHT22;62136;-35.664;-63.766;2023-02-12T06:20:00;31.20;47.60
59975;DHT22;62136;-35.664;-63.766;2023-02-12T06:22:28;31.20;47.60
59975;DHT22;62136;-35.664;-63.766;2023-02-12T06:24:54;31.20;47.60
59975;DHT22;62136;-35.664;-63.766;2023-02-12T06:27:21;31.20;47.70
59975;DHT22;62136;-35.664;-63.766;2023-02-12T06:29:48;31.10;47.60
59975;DHT22;62136;-35.664;-63.766;2023-02-12T06:32:15;31.10;47.50
59975;DHT22;62136;-35.664;-63.766;2023-02-12T06:34:42;31.10;47.60
59975;DHT22;62136;-35.664;-63.766;2023-02-12T06:37:11;31.10;48.00
59975;DHT22;62136;-35.664;-63.766;2023-02-12T06:39:40;31.10;47.70
59975;DHT22;62136;-35.664;-63.766;2023-02-12T06:42:07;31.10;47.70
59975;DHT22;62136;-35.664;-63.766;2023-02-12T06:44:34;31.00;47.70
59975;DHT22;62136;-35.664;-63.766;2023-02-12T06:47:05;31.10;47.80
59975;DHT22;62136;-35.664;-63.766;2023-02-12T06:49:32;31.10;47.80
59975;DHT22;62136;-35.664;-63.766;2023-02-12T06:51:59;31.00;47.80
59975;DHT22;62136;-35.664;-63.766;2023-02-12T06:54:26;31.00;47.80
59975;DHT22;62136;-35.664;-63.766;2023-02-12T06:56:53;31.00;47.60
59975;DHT22;62136;-35.664;-63.766;2023-02-12T06:59:20;31.00;47.80
59975;DHT22;62136;-35.664;-63.766;2023-02-12T07:01:50;31.00;47.90
59975;DHT22;62136;-35.664;-63.766;2023-02-12T07:04:17;31.00;47.80
59975;DHT22;62136;-35.664;-63.766;2023-02-12T07:06:44;31.00;47.90
59975;DHT22;62136;-35.664;-63.766;2023-02-12T07:09:11;31.00;47.90
59975;DHT22;62136;-35.664;-63.766;2023-02-12T07:11:38;31.00;47.90
59975;DHT22;62136;-35.664;-63.766;2023-02-12T07:14:06;31.00;47.80
59975;DHT22;62136;-35.664;-63.766;2023-02-12T07:16:33;31.00;47.50
59975;DHT22;62136;-35.664;-63.766;2023-02-12T07:19:00;31.00;47.90
59975;DHT22;62136;-35.664;-63.766;2023-02-12T07:21:27;31.00;48.00
59975;DHT22;62136;-35.664;-63.766;2023-02-12T07:24:00;30.90;47.90
59975;DHT22;62136;-35.664;-63.766;2023-02-12T07:26:30;30.90;47.90
59975;DHT22;62136;-35.664;-63.766;2023-02-12T07:28:57;30.90;48.10
59975;DHT22;62136;-35.664;-63.766;2023-02-12T07:31:30;30.90;48.00
59975;DHT22;62136;-35.664;-63.766;2023-02-12T07:33:58;30.90;47.90
59975;DHT22;62136;-35.664;-63.766;2023-02-12T07:36:29;30.90;48.10
59975;DHT22;62136;-35.664;-63.766;2023-02-12T07:38:59;30.90;48.10
59975;DHT22;62136;-35.664;-63.766;2023-02-12T07:41:29;30.90;48.10
59975;DHT22;62136;-35.664;-63.766;2023-02-12T07:43:59;30.90;48.10
59975;DHT22;62136;-35.664;-63.766;2023-02-12T07:46:33;30.80;48.10
59975;DHT22;62136;-35.664;-63.766;2023-02-12T07:49:02;30.80;48.10
59975;DHT22;62136;-35.664;-63.766;2023-02-12T07:51:31;30.80;48.10
59975;DHT22;62136;-35.664;-63.766;2023-02-12T07:53:59;30.80;48.10
59975;DHT22;62136;-35.664;-63.766;2023-02-12T07:56:32;30.80;48.20
59975;DHT22;62136;-35.664;-63.766;2023-02-12T07:59:03;30.80;48.20
59975;DHT22;62136;-35.664;-63.766;2023-02-12T08:01:33;30.80;48.30
59975;DHT22;62136;-35.664;-63.766;2023-02-12T08:04:06;30.80;48.10
59975;DHT22;62136;-35.664;-63.766;2023-02-12T08:06:35;30.70;48.30
59975;DHT22;62136;-35.664;-63.766;2023-02-12T08:09:05;30.80;48.40
59975;DHT22;62136;-35.664;-63.766;2023-02-12T08:11:32;30.80;48.50
59975;DHT22;62136;-35.664;-63.766;2023-02-12T08:14:00;30.80;49.00
59975;DHT22;62136;-35.664;-63.766;2023-02-12T08:16:28;30.80;48.10
59975;DHT22;62136;-35.664;-63.766;2023-02-12T08:18:57;30.70;48.40
59975;DHT22;62136;-35.664;-63.766;2023-02-12T08:21:26;30.70;48.30
59975;DHT22;62136;-35.664;-63.766;2023-02-12T08:23:55;30.70;48.40
59975;DHT22;62136;-35.664;-63.766;2023-02-12T08:26:30;30.70;48.40
59975;DHT22;62136;-35.664;-63.766;2023-02-12T08:31:30;30.70;48.50
59975;DHT22;62136;-35.664;-63.766;2023-02-12T08:33:58;30.70;48.40
59975;DHT22;62136;-35.664;-63.766;2023-02-12T08:36:30;30.60;48.10
59975;DHT22;62136;-35.664;-63.766;2023-02-12T08:39:01;30.60;48.50
59975;DHT22;62136;-35.664;-63.766;2023-02-12T08:41:29;30.70;48.60
59975;DHT22;62136;-35.664;-63.766;2023-02-12T08:43:59;30.70;48.50
59975;DHT22;62136;-35.664;-63.766;2023-02-12T08:46:28;30.60;48.50
59975;DHT22;62136;-35.664;-63.766;2023-02-12T08:49:01;30.60;48.50
59975;DHT22;62136;-35.664;-63.766;2023-02-12T08:51:31;30.70;48.60
59975;DHT22;62136;-35.664;-63.766;2023-02-12T08:54:07;30.60;48.50
59975;DHT22;62136;-35.664;-63.766;2023-02-12T08:56:36;30.60;48.60
59975;DHT22;62136;-35.664;-63.766;2023-02-12T08:59:05;30.60;49.20
59975;DHT22;62136;-35.664;-63.766;2023-02-12T09:01:34;30.60;48.70
59975;DHT22;62136;-35.664;-63.766;2023-02-12T09:04:04;30.60;48.70
59975;DHT22;62136;-35.664;-63.766;2023-02-12T09:06:34;30.60;48.70
59975;DHT22;62136;-35.664;-63.766;2023-02-12T09:09:02;30.50;48.60
59975;DHT22;62136;-35.664;-63.766;2023-02-12T09:11:29;30.50;48.70
59975;DHT22;62136;-35.664;-63.766;2023-02-12T09:14:02;30.50;48.80
59975;DHT22;62136;-35.664;-63.766;2023-02-12T09:16:31;30.50;48.80
59975;DHT22;62136;-35.664;-63.766;2023-02-12T09:18:58;30.50;48.70
59975;DHT22;62136;-35.664;-63.766;2023-02-12T09:21:26;30.50;48.80
59975;DHT22;62136;-35.664;-63.766;2023-02-12T09:23:53;30.40;48.80
59975;DHT22;62136;-35.664;-63.766;2023-02-12T09:26:23;30.40;48.70
59975;DHT22;62136;-35.664;-63.766;2023-02-12T09:28:53;30.50;48.50
59975;DHT22;62136;-35.664;-63.766;2023-02-12T09:31:23;30.40;48.90
59975;DHT22;62136;-35.664;-63.766;2023-02-12T09:33:53;30.40;48.70
59975;DHT22;62136;-35.664;-63.766;2023-02-12T09:36:21;30.40;49.00
59975;DHT22;62136;-35.664;-63.766;2023-02-12T09:38:48;30.40;48.70
59975;DHT22;62136;-35.664;-63.766;2023-02-12T09:41:25;30.40;48.80
59975;DHT22;62136;-35.664;-63.766;2023-02-12T09:49:47;30.40;49.10
59975;DHT22;62136;-35.664;-63.766;2023-02-12T09:52:21;30.30;48.70
59975;DHT22;62136;-35.664;-63.766;2023-02-12T09:54:49;30.40;49.10
59975;DHT22;62136;-35.664;-63.766;2023-02-12T09:57:29;30.40;49.20
59975;DHT22;62136;-35.664;-63.766;2023-02-12T10:00:09;30.30;49.10
59975;DHT22;62136;-35.664;-63.766;2023-02-12T10:02:38;30.30;49.20
59975;DHT22;62136;-35.664;-63.766;2023-02-12T10:05:15;30.30;49.20
59975;DHT22;62136;-35.664;-63.766;2023-02-12T10:07:57;30.30;49.20
59975;DHT22;62136;-35.664;-63.766;2023-02-12T10:16:20;30.30;49.30
59975;DHT22;62136;-35.664;-63.766;2023-02-12T10:22:28;30.30;49.40
59975;DHT22;62136;-35.664;-63.766;2023-02-12T10:27:53;30.20;49.30
59975;DHT22;62136;-35.664;-63.766;2023-02-12T10:30:40;30.20;49.20
59975;DHT22;62136;-35.664;-63.766;2023-02-12T10:33:34;30.20;49.30
59975;DHT22;62136;-35.664;-63.766;2023-02-12T10:36:30;30.30;49.30
59975;DHT22;62136;-35.664;-63.766;2023-02-12T10:39:04;30.20;49.50
59975;DHT22;62136;-35.664;-63.766;2023-02-12T10:41:36;30.30;49.10
59975;DHT22;62136;-35.664;-63.766;2023-02-12T10:44:04;30.20;49.50
59975;DHT22;62136;-35.664;-63.766;2023-02-12T10:46:31;30.30;49.50
59975;DHT22;62136;-35.664;-63.766;2023-02-12T10:48:59;30.30;48.90
59975;DHT22;62136;-35.664;-63.766;2023-02-12T10:57:13;30.40;49.10
59975;DHT22;62136;-35.664;-63.766;2023-02-12T10:59:42;30.30;49.20
59975;DHT22;62136;-35.664;-63.766;2023-02-12T11:02:35;30.30;49.20
59975;DHT22;62136;-35.664;-63.766;2023-02-12T11:05:21;30.30;49.40
59975;DHT22;62136;-35.664;-63.766;2023-02-12T11:07:50;30.30;49.50
59975;DHT22;62136;-35.664;-63.766;2023-02-12T11:10:28;30.30;49.50
59975;DHT22;62136;-35.664;-63.766;2023-02-12T11:12:58;30.30;49.50
59975;DHT22;62136;-35.664;-63.766;2023-02-12T11:15:29;30.30;49.60
59975;DHT22;62136;-35.664;-63.766;2023-02-12T11:18:05;30.30;49.60
59975;DHT22;62136;-35.664;-63.766;2023-02-12T11:20:37;30.30;49.60
59975;DHT22;62136;-35.664;-63.766;2023-02-12T11:31:30;30.30;49.80
59975;DHT22;62136;-35.664;-63.766;2023-02-12T11:36:36;30.30;49.80
59975;DHT22;62136;-35.664;-63.766;2023-02-12T11:39:05;30.40;49.60
59975;DHT22;62136;-35.664;-63.766;2023-02-12T11:41:40;30.30;50.00
59975;DHT22;62136;-35.664;-63.766;2023-02-12T11:44:33;30.40;50.10
59975;DHT22;62136;-35.664;-63.766;2023-02-12T11:46:59;30.40;50.00
59975;DHT22;62136;-35.664;-63.766;2023-02-12T11:49:32;30.40;50.10
59975;DHT22;62136;-35.664;-63.766;2023-02-12T11:52:01;30.40;50.30
59975;DHT22;62136;-35.664;-63.766;2023-02-12T11:54:33;30.40;50.20
59975;DHT22;62136;-35.664;-63.766;2023-02-12T11:57:02;30.40;50.10
59975;DHT22;62136;-35.664;-63.766;2023-02-12T12:02:00;30.40;50.00
59975;DHT22;62136;-35.664;-63.766;2023-02-12T12:04:31;30.50;50.10
59975;DHT22;62136;-35.664;-63.766;2023-02-12T12:07:24;30.50;49.90
59975;DHT22;62136;-35.664;-63.766;2023-02-12T12:09:57;30.50;49.90
59975;DHT22;62136;-35.664;-63.766;2023-02-12T12:12:43;30.50;49.80
59975;DHT22;62136;-35.664;-63.766;2023-02-12T12:15:35;30.50;49.90
59975;DHT22;62136;-35.664;-63.766;2023-02-12T12:23:48;30.60;49.90
59975;DHT22;62136;-35.664;-63.766;2023-02-12T12:26:29;30.60;49.60
59975;DHT22;62136;-35.664;-63.766;2023-02-12T12:29:30;30.60;49.80
59975;DHT22;62136;-35.664;-63.766;2023-02-12T12:32:01;30.60;49.80
59975;DHT22;62136;-35.664;-63.766;2023-02-12T12:34:29;30.70;49.60
59975;DHT22;62136;-35.664;-63.766;2023-02-12T12:37:20;30.70;49.80
59975;DHT22;62136;-35.664;-63.766;2023-02-12T12:46:19;30.80;50.10
59975;DHT22;62136;-35.664;-63.766;2023-02-12T12:48:54;30.80;50.00
59975;DHT22;62136;-35.664;-63.766;2023-02-12T13:00:07;30.90;49.90
59975;DHT22;62136;-35.664;-63.766;2023-02-12T13:11:01;31.00;50.00
59975;DHT22;62136;-35.664;-63.766;2023-02-12T13:13:38;31.00;50.20
59975;DHT22;62136;-35.664;-63.766;2023-02-12T13:19:02;31.00;49.90
59975;DHT22;62136;-35.664;-63.766;2023-02-12T13:26:57;31.10;49.50
59975;DHT22;62136;-35.664;-63.766;2023-02-12T13:29:33;31.10;49.50
59975;DHT22;62136;-35.664;-63.766;2023-02-12T13:32:13;31.20;49.40
59975;DHT22;62136;-35.664;-63.766;2023-02-12T13:34:42;31.20;49.40
59975;DHT22;62136;-35.664;-63.766;2023-02-12T13:37:17;31.20;49.40
59975;DHT22;62136;-35.664;-63.766;2023-02-12T13:39:48;31.20;49.50
59975;DHT22;62136;-35.664;-63.766;2023-02-12T13:45:39;31.30;49.30
59975;DHT22;62136;-35.664;-63.766;2023-02-12T13:58:58;31.40;49.20
59975;DHT22;62136;-35.664;-63.766;2023-02-12T14:01:43;31.40;49.30
59975;DHT22;62136;-35.664;-63.766;2023-02-12T14:04:28;31.50;49.40
59975;DHT22;62136;-35.664;-63.766;2023-02-12T14:14:56;31.50;48.70
59975;DHT22;62136;-35.664;-63.766;2023-02-12T14:20:25;31.60;48.90
59975;DHT22;62136;-35.664;-63.766;2023-02-12T14:25:57;31.60;49.00
59975;DHT22;62136;-35.664;-63.766;2023-02-12T14:29:05;31.60;48.90
59975;DHT22;62136;-35.664;-63.766;2023-02-12T14:41:54;31.80;48.90
59975;DHT22;62136;-35.664;-63.766;2023-02-12T14:46:54;31.80;48.80
59975;DHT22;62136;-35.664;-63.766;2023-02-12T14:49:37;31.90;49.20
59975;DHT22;62136;-35.664;-63.766;2023-02-12T14:54:42;32.00;49.20
59975;DHT22;62136;-35.664;-63.766;2023-02-12T14:57:40;32.00;49.20
59975;DHT22;62136;-35.664;-63.766;2023-02-12T15:14:11;32.10;49.10
59975;DHT22;62136;-35.664;-63.766;2023-02-12T15:17:22;32.20;49.10
59975;DHT22;62136;-35.664;-63.766;2023-02-12T15:20:07;32.20;49.00
59975;DHT22;62136;-35.664;-63.766;2023-02-12T15:22:39;32.20;49.00
59975;DHT22;62136;-35.664;-63.766;2023-02-12T15:25:28;32.20;48.90
59975;DHT22;62136;-35.664;-63.766;2023-02-12T15:30:43;32.30;48.90
59975;DHT22;62136;-35.664;-63.766;2023-02-12T15:33:25;32.30;48.80
59975;DHT22;62136;-35.664;-63.766;2023-02-12T15:35:53;32.30;48.70
59975;DHT22;62136;-35.664;-63.766;2023-02-12T15:38:30;32.40;48.70
59975;DHT22;62136;-35.664;-63.766;2023-02-12T15:40:59;32.40;48.60
59975;DHT22;62136;-35.664;-63.766;2023-02-12T15:43:29;32.40;48.60
59975;DHT22;62136;-35.664;-63.766;2023-02-12T15:46:02;32.50;48.50
59975;DHT22;62136;-35.664;-63.766;2023-02-12T15:48:32;32.50;48.50
59975;DHT22;62136;-35.664;-63.766;2023-02-12T15:53:48;32.50;48.40
59975;DHT22;62136;-35.664;-63.766;2023-02-12T15:56:20;32.60;48.50
59975;DHT22;62136;-35.664;-63.766;2023-02-12T15:58:53;32.60;48.70
59975;DHT22;62136;-35.664;-63.766;2023-02-12T16:01:26;32.60;48.40
59975;DHT22;62136;-35.664;-63.766;2023-02-12T16:03:59;32.70;48.50
59975;DHT22;62136;-35.664;-63.766;2023-02-12T16:06:30;32.70;48.40
59975;DHT22;62136;-35.664;-63.766;2023-02-12T16:09:07;32.70;48.40
59975;DHT22;62136;-35.664;-63.766;2023-02-12T16:11:35;32.80;48.40
59975;DHT22;62136;-35.664;-63.766;2023-02-12T16:14:06;32.70;48.30
59975;DHT22;62136;-35.664;-63.766;2023-02-12T16:16:45;32.80;48.20
59975;DHT22;62136;-35.664;-63.766;2023-02-12T16:19:23;32.80;48.20
59975;DHT22;62136;-35.664;-63.766;2023-02-12T16:24:35;32.90;48.30
59975;DHT22;62136;-35.664;-63.766;2023-02-12T16:27:23;32.90;48.30
59975;DHT22;62136;-35.664;-63.766;2023-02-12T16:29:56;32.90;48.20
59975;DHT22;62136;-35.664;-63.766;2023-02-12T16:32:39;32.90;48.20
59975;DHT22;62136;-35.664;-63.766;2023-02-12T16:37:52;33.00;48.00
59975;DHT22;62136;-35.664;-63.766;2023-02-12T16:40:27;33.00;48.10
59975;DHT22;62136;-35.664;-63.766;2023-02-12T16:42:55;33.00;47.90
59975;DHT22;62136;-35.664;-63.766;2023-02-12T16:50:29;33.10;47.80
59975;DHT22;62136;-35.664;-63.766;2023-02-12T16:55:27;33.10;47.80
59975;DHT22;62136;-35.664;-63.766;2023-02-12T16:57:54;33.10;47.60
59975;DHT22;62136;-35.664;-63.766;2023-02-12T17:00:21;33.20;47.80
59975;DHT22;62136;-35.664;-63.766;2023-02-12T17:02:49;33.20;47.80
59975;DHT22;62136;-35.664;-63.766;2023-02-12T17:05:17;33.20;47.60
59975;DHT22;62136;-35.664;-63.766;2023-02-12T17:07:44;33.30;47.60
59975;DHT22;62136;-35.664;-63.766;2023-02-12T17:10:16;33.30;47.80
59975;DHT22;62136;-35.664;-63.766;2023-02-12T17:12:51;33.30;47.60
59975;DHT22;62136;-35.664;-63.766;2023-02-12T17:16:01;33.30;47.50
59975;DHT22;62136;-35.664;-63.766;2023-02-12T17:18:28;33.30;47.50
59975;DHT22;62136;-35.664;-63.766;2023-02-12T17:21:51;33.40;47.50
59975;DHT22;62136;-35.664;-63.766;2023-02-12T17:24:13;33.40;48.00
59975;DHT22;62136;-35.664;-63.766;2023-02-12T17:26:40;33.40;47.20
59975;DHT22;62136;-35.664;-63.766;2023-02-12T17:29:07;33.40;47.30
59975;DHT22;62136;-35.664;-63.766;2023-02-12T17:31:35;33.50;47.30
59975;DHT22;62136;-35.664;-63.766;2023-02-12T17:34:03;33.50;47.30
59975;DHT22;62136;-35.664;-63.766;2023-02-12T17:36:31;33.50;47.40
59975;DHT22;62136;-35.664;-63.766;2023-02-12T17:38:58;33.50;47.20
59975;DHT22;62136;-35.664;-63.766;2023-02-12T17:41:25;33.50;47.10
59975;DHT22;62136;-35.664;-63.766;2023-02-12T17:43:52;33.50;47.00
59975;DHT22;62136;-35.664;-63.766;2023-02-12T17:46:22;33.60;47.10
59975;DHT22;62136;-35.664;-63.766;2023-02-12T17:48:49;33.60;47.20
59975;DHT22;62136;-35.664;-63.766;2023-02-12T17:51:17;33.60;47.10
59975;DHT22;62136;-35.664;-63.766;2023-02-12T17:53:44;33.60;47.00
59975;DHT22;62136;-35.664;-63.766;2023-02-12T17:56:13;33.60;47.10
59975;DHT22;62136;-35.664;-63.766;2023-02-12T17:58:42;33.60;47.00
59975;DHT22;62136;-35.664;-63.766;2023-02-12T18:01:11;33.60;47.10
59975;DHT22;62136;-35.664;-63.766;2023-02-12T18:03:39;33.70;47.00
59975;DHT22;62136;-35.664;-63.766;2023-02-12T18:06:07;33.70;47.00
59975;DHT22;62136;-35.664;-63.766;2023-02-12T18:08:34;33.70;46.90
59975;DHT22;62136;-35.664;-63.766;2023-02-12T18:11:05;33.80;46.80
59975;DHT22;62136;-35.664;-63.766;2023-02-12T18:13:33;33.80;46.80
59975;DHT22;62136;-35.664;-63.766;2023-02-12T18:16:00;33.80;46.80
59975;DHT22;62136;-35.664;-63.766;2023-02-12T18:18:27;33.80;46.80
59975;DHT22;62136;-35.664;-63.766;2023-02-12T18:20:54;33.80;46.90
59975;DHT22;62136;-35.664;-63.766;2023-02-12T18:23:21;33.80;46.80
59975;DHT22;62136;-35.664;-63.766;2023-02-12T18:25:48;33.90;46.80
59975;DHT22;62136;-35.664;-63.766;2023-02-12T18:28:15;33.90;46.70
59975;DHT22;62136;-35.664;-63.766;2023-02-12T18:30:42;33.90;46.60
59975;DHT22;62136;-35.664;-63.766;2023-02-12T18:33:10;33.90;46.50
59975;DHT22;62136;-35.664;-63.766;2023-02-12T18:35:38;34.00;46.50
59975;DHT22;62136;-35.664;-63.766;2023-02-12T18:38:07;34.00;46.50
59975;DHT22;62136;-35.664;-63.766;2023-02-12T18:40:34;34.00;46.40
59975;DHT22;62136;-35.664;-63.766;2023-02-12T18:43:01;34.00;46.20
59975;DHT22;62136;-35.664;-63.766;2023-02-12T18:45:28;34.00;46.10
59975;DHT22;62136;-35.664;-63.766;2023-02-12T18:47:55;34.00;45.90
59975;DHT22;62136;-35.664;-63.766;2023-02-12T18:50:22;34.00;45.90
59975;DHT22;62136;-35.664;-63.766;2023-02-12T18:52:49;34.10;46.00
59975;DHT22;62136;-35.664;-63.766;2023-02-12T18:55:16;34.10;45.90
59975;DHT22;62136;-35.664;-63.766;2023-02-12T18:57:43;34.10;45.80